createdAt,value
2022-10-19T00:01:12.356Z,73.10
2022-10-19T00:03:39.533Z,72.80
2022-10-19T00:06:19.567Z,72.87
2022-10-19T00:08:46.354Z,73.08
2022-10-19T00:11:13.483Z,73.08
2022-10-19T00:13:40.609Z,72.94
2022-10-19T00:16:12.964Z,72.87
2022-10-19T00:18:41.393Z,72.83
2022-10-19T00:21:09.884Z,72.90
2022-10-19T00:23:37.111Z,72.85
2022-10-19T00:26:04.097Z,72.92
2022-10-19T00:28:31.190Z,72.76
2022-10-19T00:31:02.850Z,72.85
2022-10-19T00:33:29.598Z,72.71
2022-10-19T00:35:56.311Z,72.80
2022-10-19T00:38:22.987Z,72.88
2022-10-19T00:40:49.982Z,72.78
2022-10-19T00:43:23.284Z,72.91
2022-10-19T00:45:50.660Z,72.85
2022-10-19T00:48:22.188Z,72.78
2022-10-19T00:50:51.383Z,72.86
2022-10-19T00:53:18.422Z,72.96
2022-10-19T00:55:46.383Z,73.11
2022-10-19T00:58:13.798Z,73.25
2022-10-19T01:00:40.748Z,73.13
2022-10-19T01:03:09.821Z,73.03
2022-10-19T01:05:36.726Z,73.12
2022-10-19T01:08:03.910Z,73.09
2022-10-19T01:10:42.969Z,73.10
2022-10-19T01:13:40.286Z,73.00
2022-10-19T01:16:52.174Z,72.68
2022-10-19T01:19:42.616Z,72.73
2022-10-19T01:22:51.149Z,72.72
2022-10-19T01:25:30.112Z,72.70
2022-10-19T01:28:26.119Z,72.38
2022-10-19T01:31:03.413Z,72.41
2022-10-19T01:34:23.297Z,72.34
2022-10-19T01:37:01.531Z,72.38
2022-10-19T01:39:45.261Z,72.26
2022-10-19T01:42:17.864Z,72.12
2022-10-19T01:44:50.603Z,72.23
2022-10-19T01:47:22.989Z,72.12
2022-10-19T01:50:31.622Z,72.22
2022-10-19T01:52:59.448Z,72.38
2022-10-19T01:55:27.671Z,72.39
2022-10-19T01:57:59.492Z,72.51
2022-10-19T02:00:28.229Z,72.51
2022-10-19T02:02:56.186Z,72.22
2022-10-19T02:05:28.364Z,72.61
2022-10-19T02:08:00.133Z,72.89
2022-10-19T02:10:29.217Z,73.10
2022-10-19T02:12:57.999Z,73.16
2022-10-19T02:15:27.659Z,73.03
2022-10-19T02:17:59.755Z,72.99
2022-10-19T02:20:28.436Z,73.20
2022-10-19T02:22:55.544Z,73.36
2022-10-19T02:25:24.887Z,73.49
2022-10-19T02:27:51.830Z,73.59
2022-10-19T02:30:20.324Z,73.50
2022-10-19T02:32:47.198Z,73.50
2022-10-19T02:35:14.982Z,73.64
2022-10-19T02:37:42.963Z,73.65
2022-10-19T02:40:10.964Z,73.59
2022-10-19T02:42:48.109Z,73.53
2022-10-19T02:45:25.900Z,73.49
2022-10-19T02:47:58.195Z,73.46
2022-10-19T02:50:25.252Z,73.39
2022-10-19T02:52:52.087Z,73.48
2022-10-19T02:55:18.950Z,73.63
2022-10-19T02:57:45.720Z,73.59
2022-10-19T03:00:12.670Z,73.66
2022-10-19T03:02:39.485Z,73.60
2022-10-19T03:05:06.723Z,73.63
2022-10-19T03:07:33.685Z,73.47
2022-10-19T03:10:00.568Z,73.46
2022-10-19T03:12:27.374Z,73.47
2022-10-19T03:14:54.324Z,73.33
2022-10-19T03:17:21.128Z,73.27
2022-10-19T03:19:47.928Z,73.40
2022-10-19T03:22:15.121Z,73.36
2022-10-19T03:24:41.848Z,73.41
2022-10-19T03:27:08.719Z,73.43
2022-10-19T03:29:35.486Z,73.36
2022-10-19T03:32:02.219Z,73.52
2022-10-19T03:34:29.009Z,73.52
2022-10-19T03:36:56.824Z,73.52
2022-10-19T03:39:23.596Z,73.52
2022-10-19T03:41:50.364Z,73.60
2022-10-19T03:44:17.340Z,73.61
2022-10-19T03:46:44.133Z,73.70
2022-10-19T03:49:12.047Z,73.75
2022-10-19T03:51:38.795Z,73.76
2022-10-19T03:54:08.293Z,73.76
2022-10-19T03:56:36.196Z,73.72
2022-10-19T03:59:04.479Z,73.77
2022-10-19T04:01:37.295Z,73.71
2022-10-19T04:04:11.734Z,73.86
2022-10-19T04:06:41.536Z,73.80
2022-10-19T04:09:10.102Z,73.72
2022-10-19T04:11:37.858Z,73.68
2022-10-19T04:14:04.763Z,73.64
2022-10-19T04:16:32.502Z,73.71
2022-10-19T04:18:59.729Z,73.84
2022-10-19T04:21:38.080Z,73.84
2022-10-19T04:24:11.815Z,73.58
2022-10-19T04:26:44.152Z,73.68
2022-10-19T04:29:11.442Z,73.68
2022-10-19T04:31:39.083Z,73.63
2022-10-19T04:34:06.869Z,73.55
2022-10-19T04:36:34.105Z,73.71
2022-10-19T04:39:00.810Z,73.82
2022-10-19T04:41:27.618Z,73.80
2022-10-19T04:43:59.764Z,73.78
2022-10-19T04:46:27.655Z,73.76
2022-10-19T04:48:56.169Z,73.78
2022-10-19T04:51:23.838Z,73.87
2022-10-19T04:53:51.665Z,73.85
2022-10-19T04:56:21.838Z,73.96
2022-10-19T04:58:49.031Z,73.89
2022-10-19T05:01:18.981Z,73.76
2022-10-19T05:03:46.537Z,73.72
2022-10-19T05:06:14.373Z,73.75
2022-10-19T05:08:41.541Z,73.75
2022-10-19T05:11:11.716Z,73.79
2022-10-19T05:13:39.049Z,73.86
2022-10-19T05:16:07.508Z,73.86
2022-10-19T05:18:35.042Z,73.92
2022-10-19T05:21:07.127Z,73.89
2022-10-19T05:23:34.855Z,73.75
2022-10-19T05:26:06.916Z,73.77
2022-10-19T05:28:34.697Z,73.86
2022-10-19T05:31:09.335Z,73.99
2022-10-19T05:33:36.881Z,74.03
2022-10-19T05:36:21.806Z,74.06
2022-10-19T05:38:49.995Z,74.08
2022-10-19T05:41:17.530Z,74.00
2022-10-19T05:43:45.143Z,74.08
2022-10-19T05:46:14.576Z,74.06
2022-10-19T05:48:41.674Z,74.05
2022-10-19T05:51:11.926Z,74.14
2022-10-19T05:56:17.858Z,74.12
2022-10-19T05:58:44.966Z,74.12
2022-10-19T06:01:12.354Z,74.07
2022-10-19T06:03:39.048Z,74.03
2022-10-19T06:06:07.692Z,74.07
2022-10-19T06:08:35.307Z,74.03
2022-10-19T06:11:11.191Z,73.94
2022-10-19T06:13:39.516Z,74.06
2022-10-19T06:16:08.032Z,74.10
2022-10-19T06:18:35.208Z,74.09
2022-10-19T06:21:04.566Z,74.12
2022-10-19T06:23:32.591Z,74.03
2022-10-19T06:26:01.797Z,74.08
2022-10-19T06:28:28.622Z,74.03
2022-10-19T06:30:57.993Z,73.90
2022-10-19T06:33:25.133Z,73.96
2022-10-19T06:35:51.929Z,73.93
2022-10-19T06:38:18.889Z,73.87
2022-10-19T06:40:45.785Z,73.97
2022-10-19T06:43:12.500Z,73.90
2022-10-19T06:45:39.410Z,73.95
2022-10-19T06:48:07.819Z,73.90
2022-10-19T06:50:35.480Z,73.92
2022-10-19T06:53:02.245Z,73.85
2022-10-19T06:55:28.939Z,73.92
2022-10-19T06:57:55.686Z,73.88
2022-10-19T07:00:22.404Z,73.94
2022-10-19T07:02:49.177Z,73.84
2022-10-19T07:05:16.053Z,73.66
2022-10-19T07:07:43.079Z,73.84
2022-10-19T07:10:10.039Z,73.97
2022-10-19T07:12:36.828Z,74.01
2022-10-19T07:15:03.962Z,74.04
2022-10-19T07:17:30.747Z,74.01
2022-10-19T07:19:57.539Z,74.09
2022-10-19T07:22:27.980Z,74.15
2022-10-19T07:24:55.100Z,74.17
2022-10-19T07:27:21.979Z,74.15
2022-10-19T07:29:48.694Z,74.19
2022-10-19T07:32:15.441Z,74.18
2022-10-19T07:34:42.155Z,74.08
2022-10-19T07:37:08.870Z,74.09
2022-10-19T07:39:35.700Z,74.06
2022-10-19T07:42:02.498Z,74.00
2022-10-19T07:44:29.242Z,73.94
2022-10-19T07:46:56.009Z,73.95
2022-10-19T07:49:22.775Z,73.79
2022-10-19T07:51:54.076Z,73.86
2022-10-19T07:54:21.518Z,73.83
2022-10-19T07:56:48.268Z,73.75
2022-10-19T07:59:17.072Z,73.69
2022-10-19T08:01:45.132Z,73.65
2022-10-19T08:06:58.695Z,73.42
2022-10-19T08:09:51.407Z,73.37
2022-10-19T08:12:15.092Z,73.29
2022-10-19T08:14:42.309Z,73.08
2022-10-19T08:17:11.989Z,72.97
2022-10-19T08:19:43.500Z,72.76
2022-10-19T08:22:11.092Z,72.60
2022-10-19T08:24:38.202Z,72.47
2022-10-19T08:27:05.506Z,72.31
2022-10-19T08:29:32.407Z,72.17
2022-10-19T08:31:59.695Z,72.15
2022-10-19T08:34:26.505Z,72.03
2022-10-19T08:36:53.257Z,71.93
2022-10-19T08:39:19.976Z,71.86
2022-10-19T08:41:59.516Z,71.73
2022-10-19T08:44:47.482Z,71.66
2022-10-19T08:47:29.389Z,71.51
2022-10-19T08:49:57.465Z,71.44
2022-10-19T08:52:34.389Z,71.43
2022-10-19T08:55:06.137Z,71.31
2022-10-19T08:57:59.530Z,71.22
2022-10-19T09:00:43.547Z,71.14
2022-10-19T09:03:37.913Z,71.04
2022-10-19T09:07:12.648Z,70.95
2022-10-19T09:12:24.765Z,70.79
2022-10-19T09:15:12.945Z,70.74
2022-10-19T09:17:39.653Z,70.71
2022-10-19T09:20:35.616Z,70.61
2022-10-19T09:23:03.786Z,70.51
2022-10-19T09:25:34.551Z,70.46
2022-10-19T09:28:14.738Z,70.43
2022-10-19T09:30:44.288Z,70.39
2022-10-19T09:33:35.576Z,70.31
2022-10-19T09:36:04.725Z,70.18
2022-10-19T09:38:31.851Z,70.06
2022-10-19T09:41:07.604Z,69.98
2022-10-19T09:43:34.789Z,69.99
2022-10-19T09:46:19.515Z,69.94
2022-10-19T09:48:51.775Z,69.82
2022-10-19T09:51:20.147Z,69.68
2022-10-19T09:53:52.756Z,69.58
2022-10-19T09:56:25.295Z,69.49
2022-10-19T09:58:57.610Z,69.43
2022-10-19T10:01:41.733Z,69.33
2022-10-19T10:04:18.690Z,69.24
2022-10-19T10:06:48.025Z,69.14
2022-10-19T10:09:19.787Z,69.07
2022-10-19T10:11:49.746Z,69.00
2022-10-19T10:14:36.225Z,68.95
2022-10-19T10:17:04.966Z,68.89
2022-10-19T10:19:33.780Z,68.81
2022-10-19T10:22:03.000Z,68.75
2022-10-19T10:24:32.425Z,68.81
2022-10-19T10:27:02.472Z,68.80
2022-10-19T10:29:30.610Z,68.70
2022-10-19T10:32:07.647Z,68.57
2022-10-19T10:34:50.218Z,68.46
2022-10-19T10:37:26.046Z,68.45
2022-10-19T10:39:56.712Z,68.46
2022-10-19T10:42:32.822Z,68.40
2022-10-19T10:45:00.115Z,68.26
2022-10-19T10:47:28.549Z,68.16
2022-10-19T10:50:02.846Z,68.06
2022-10-19T10:52:31.593Z,68.04
2022-10-19T10:55:14.217Z,68.04
2022-10-19T10:57:47.697Z,68.09
2022-10-19T11:00:18.081Z,68.19
2022-10-19T11:03:17.641Z,68.14
2022-10-19T11:05:48.279Z,68.16
2022-10-19T11:08:33.553Z,68.10
2022-10-19T11:11:17.884Z,68.13
2022-10-19T11:13:56.166Z,68.16
2022-10-19T11:16:38.790Z,68.15
2022-10-19T11:19:40.943Z,68.10
2022-10-19T11:22:25.076Z,68.09
2022-10-19T11:25:04.211Z,67.96
2022-10-19T11:28:04.675Z,68.07
2022-10-19T11:30:42.487Z,67.96
2022-10-19T11:33:33.863Z,67.85
2022-10-19T11:36:07.933Z,67.81
2022-10-19T11:38:43.288Z,67.87
2022-10-19T11:41:19.464Z,67.90
2022-10-19T11:44:07.738Z,67.84
2022-10-19T11:46:37.323Z,67.75
2022-10-19T11:49:18.090Z,67.69
2022-10-19T11:51:57.504Z,67.72
2022-10-19T11:54:45.931Z,67.66
2022-10-19T11:57:42.979Z,67.53
2022-10-19T12:00:27.294Z,67.37
2022-10-19T12:03:11.599Z,67.40
2022-10-19T12:05:49.404Z,67.31
2022-10-19T12:08:21.966Z,67.22
2022-10-19T12:11:23.503Z,67.02
2022-10-19T12:13:56.513Z,66.87
2022-10-19T12:16:34.451Z,66.63
2022-10-19T12:19:05.090Z,66.70
2022-10-19T12:21:41.064Z,66.77
2022-10-19T12:24:15.954Z,66.57
2022-10-19T12:26:44.953Z,66.72
2022-10-19T12:29:22.329Z,66.71
2022-10-19T12:31:50.188Z,66.48
2022-10-19T12:34:23.186Z,66.50
2022-10-19T12:37:04.302Z,66.51
2022-10-19T12:39:56.944Z,66.61
2022-10-19T12:43:10.304Z,66.26
2022-10-19T12:45:43.978Z,66.21
2022-10-19T12:48:14.532Z,66.01
2022-10-19T12:50:50.248Z,65.90
2022-10-19T12:53:23.806Z,65.77
2022-10-19T12:56:13.784Z,65.63
2022-10-19T12:58:47.458Z,65.67
2022-10-19T13:01:23.406Z,65.78
2022-10-19T13:04:10.700Z,65.54
2022-10-19T13:06:45.836Z,65.51
2022-10-19T13:09:37.006Z,65.74
2022-10-19T13:12:19.583Z,65.75
2022-10-19T13:14:56.274Z,65.98
2022-10-19T13:17:38.278Z,66.27
2022-10-19T13:20:14.332Z,66.32
2022-10-19T13:22:46.039Z,66.29
2022-10-19T13:25:21.648Z,66.43
2022-10-19T13:27:49.657Z,66.49
2022-10-19T13:30:44.355Z,66.49
2022-10-19T13:33:29.150Z,66.51
2022-10-19T13:35:59.202Z,66.51
2022-10-19T13:38:30.172Z,66.56
2022-10-19T13:41:02.762Z,66.59
2022-10-19T13:43:32.203Z,66.44
2022-10-19T13:46:07.787Z,66.39
2022-10-19T13:48:37.207Z,66.34
2022-10-19T13:51:15.484Z,66.54
2022-10-19T13:54:12.826Z,66.59
2022-10-19T13:57:21.301Z,66.77
2022-10-19T14:00:09.656Z,66.89
2022-10-19T14:02:48.180Z,66.92
2022-10-19T14:05:20.453Z,67.07
2022-10-19T14:08:10.023Z,67.28
2022-10-19T14:10:56.149Z,67.37
2022-10-19T14:13:24.240Z,67.32
2022-10-19T14:15:54.245Z,67.38
2022-10-19T14:18:27.858Z,67.38
2022-10-19T14:21:02.741Z,67.50
2022-10-19T14:23:35.087Z,67.61
2022-10-19T14:26:14.808Z,67.66
2022-10-19T14:28:43.140Z,67.67
2022-10-19T14:31:17.908Z,67.67
2022-10-19T14:33:47.886Z,67.66
2022-10-19T14:36:20.861Z,67.56
2022-10-19T14:38:50.031Z,67.60
2022-10-19T14:41:19.923Z,67.41
2022-10-19T14:43:46.851Z,67.25
2022-10-19T14:46:15.820Z,67.09
2022-10-19T14:48:45.619Z,67.03
2022-10-19T14:51:31.138Z,67.03
2022-10-19T14:54:15.959Z,66.93
2022-10-19T14:57:02.143Z,66.86
2022-10-19T14:59:36.266Z,66.78
2022-10-19T15:02:21.177Z,66.88
2022-10-19T15:04:49.816Z,66.93
2022-10-19T15:07:26.827Z,66.80
2022-10-19T15:10:03.019Z,66.75
2022-10-19T15:12:41.776Z,66.68
2022-10-19T15:15:11.681Z,66.65
2022-10-19T15:17:50.933Z,66.60
2022-10-19T15:20:55.182Z,66.54
2022-10-19T15:23:44.823Z,66.42
2022-10-19T15:26:28.792Z,66.44
2022-10-19T15:29:07.952Z,66.42
2022-10-19T15:31:34.965Z,66.31
2022-10-19T15:34:03.450Z,66.27
2022-10-19T15:36:32.850Z,66.17
2022-10-19T15:39:17.614Z,66.19
2022-10-19T15:41:50.236Z,66.30
2022-10-19T15:44:41.072Z,66.31
2022-10-19T15:47:19.129Z,66.22
2022-10-19T15:49:46.006Z,66.25
2022-10-19T15:52:20.537Z,66.36
2022-10-19T15:54:48.431Z,66.45
2022-10-19T15:57:27.205Z,66.50
2022-10-19T15:59:57.805Z,66.64
2022-10-19T16:02:27.819Z,66.70
2022-10-19T16:04:55.445Z,66.75
2022-10-19T16:07:31.036Z,66.92
2022-10-19T16:09:58.786Z,67.01
2022-10-19T16:12:26.726Z,67.12
2022-10-19T16:14:55.043Z,67.24
2022-10-19T16:17:23.085Z,67.26
2022-10-19T16:19:50.455Z,67.25
2022-10-19T16:22:17.861Z,67.23
2022-10-19T16:24:45.167Z,67.23
2022-10-19T16:27:15.316Z,67.30
2022-10-19T16:29:44.692Z,67.09
2022-10-19T16:32:12.070Z,67.07
2022-10-19T16:34:41.410Z,67.11
2022-10-19T16:37:09.322Z,67.17
2022-10-19T16:39:36.778Z,67.14
2022-10-19T16:42:05.367Z,67.21
2022-10-19T16:44:33.081Z,67.19
2022-10-19T16:47:00.790Z,67.34
2022-10-19T16:49:28.322Z,67.27
2022-10-19T16:51:57.723Z,67.23
2022-10-19T16:54:26.982Z,67.24
2022-10-19T16:56:55.757Z,67.33
2022-10-19T16:59:24.979Z,67.47
2022-10-19T17:01:52.627Z,67.62
2022-10-19T17:04:20.102Z,67.72
2022-10-19T17:06:47.617Z,67.79
2022-10-19T17:09:41.459Z,67.82
2022-10-19T17:12:07.134Z,67.93
2022-10-19T17:14:35.701Z,67.89
2022-10-19T17:17:03.844Z,67.99
2022-10-19T17:19:32.445Z,68.00
2022-10-19T17:22:02.344Z,67.95
2022-10-19T17:24:31.723Z,67.81
2022-10-19T17:27:02.699Z,67.74
2022-10-19T17:29:33.548Z,67.67
2022-10-19T17:32:03.071Z,67.67
2022-10-19T17:34:31.113Z,67.61
2022-10-19T17:37:00.297Z,67.50
2022-10-19T17:39:35.368Z,67.43
2022-10-19T17:42:05.337Z,67.50
2022-10-19T17:44:33.622Z,67.42
2022-10-19T17:47:02.943Z,67.42
2022-10-19T17:49:30.955Z,67.42
2022-10-19T17:51:59.310Z,67.30
2022-10-19T17:54:27.420Z,67.31
2022-10-19T17:56:57.110Z,67.17
2022-10-19T17:59:34.930Z,66.81
2022-10-19T18:02:04.587Z,66.58
2022-10-19T18:04:39.927Z,66.17
2022-10-19T18:07:07.921Z,66.18
2022-10-19T18:09:37.043Z,66.00
2022-10-19T18:12:07.574Z,65.94
2022-10-19T18:14:36.475Z,65.39
2022-10-19T18:17:05.233Z,64.78
2022-10-19T18:19:33.281Z,64.75
2022-10-19T18:22:01.800Z,64.30
2022-10-19T18:24:30.188Z,64.60
2022-10-19T18:26:58.744Z,64.36
2022-10-19T18:29:27.929Z,64.47
2022-10-19T18:31:58.548Z,64.42
2022-10-19T18:34:28.452Z,64.04
2022-10-19T18:37:07.911Z,64.06
2022-10-19T18:39:36.905Z,64.12
2022-10-19T18:42:04.707Z,63.85
2022-10-19T18:44:33.778Z,63.72
2022-10-19T18:47:01.958Z,63.29
2022-10-19T18:49:30.528Z,63.22
2022-10-19T18:51:58.829Z,63.07
2022-10-19T18:54:28.427Z,63.20
2022-10-19T18:56:56.845Z,63.14
2022-10-19T18:59:30.291Z,63.19
2022-10-19T19:02:22.661Z,63.15
2022-10-19T19:05:06.185Z,62.92
2022-10-19T19:07:34.054Z,62.89
2022-10-19T19:10:02.423Z,62.55
2022-10-19T19:12:31.688Z,62.81
2022-10-19T19:15:01.539Z,62.58
2022-10-19T19:17:29.111Z,62.74
2022-10-19T19:19:56.972Z,62.65
2022-10-19T19:22:29.128Z,62.52
2022-10-19T19:24:57.618Z,62.27
2022-10-19T19:27:32.070Z,62.15
2022-10-19T19:30:01.796Z,62.35
2022-10-19T19:32:31.673Z,62.39
2022-10-19T19:35:00.189Z,62.25
2022-10-19T19:37:32.483Z,62.44
2022-10-19T19:40:00.694Z,62.67
2022-10-19T19:42:30.552Z,62.84
2022-10-19T19:45:00.819Z,62.91
2022-10-19T19:47:28.470Z,63.12
2022-10-19T19:49:58.073Z,63.06
2022-10-19T19:52:26.501Z,63.19
2022-10-19T19:54:55.381Z,63.24
2022-10-19T19:57:24.375Z,63.17
2022-10-19T19:59:53.076Z,63.24
2022-10-19T20:02:21.776Z,63.18
2022-10-19T20:04:52.260Z,63.20
2022-10-19T20:07:20.288Z,63.30
2022-10-19T20:09:48.360Z,63.24
2022-10-19T20:12:16.639Z,63.24
2022-10-19T20:14:44.888Z,63.39
2022-10-19T20:17:12.691Z,63.33
2022-10-19T20:19:40.707Z,63.42
2022-10-19T20:22:09.753Z,63.27
2022-10-19T20:24:37.912Z,63.29
2022-10-19T20:27:06.596Z,63.24
2022-10-19T20:29:37.135Z,63.27
2022-10-19T20:32:04.984Z,63.08
2022-10-19T20:34:35.882Z,63.14
2022-10-19T20:37:05.003Z,63.36
2022-10-19T20:39:32.593Z,63.22
2022-10-19T20:42:00.365Z,63.37
2022-10-19T20:44:28.172Z,63.22
2022-10-19T20:46:55.671Z,63.32
2022-10-19T20:49:23.727Z,63.18
2022-10-19T20:51:53.626Z,63.46
2022-10-19T20:54:21.132Z,63.41
2022-10-19T20:56:48.907Z,63.40
2022-10-19T20:59:18.810Z,63.51
2022-10-19T21:01:49.939Z,63.40
2022-10-19T21:04:17.524Z,63.59
2022-10-19T21:06:47.018Z,63.62
2022-10-19T21:09:17.082Z,63.66
2022-10-19T21:11:45.503Z,63.68
2022-10-19T21:14:15.232Z,64.00
2022-10-19T21:16:42.524Z,63.97
2022-10-19T21:19:16.314Z,63.80
2022-10-19T21:21:46.354Z,64.02
2022-10-19T21:24:16.793Z,64.16
2022-10-19T21:26:44.597Z,64.30
2022-10-19T21:29:12.670Z,64.53
2022-10-19T21:31:44.117Z,64.45
2022-10-19T21:34:15.773Z,64.74
2022-10-19T21:36:42.929Z,64.86
2022-10-19T21:39:09.750Z,64.86
2022-10-19T21:41:37.034Z,65.21
2022-10-19T21:44:03.994Z,65.31
2022-10-19T21:46:30.965Z,65.33
2022-10-19T21:48:57.931Z,65.41
2022-10-19T21:51:52.272Z,65.54
2022-10-19T21:54:23.345Z,65.67
2022-10-19T21:56:50.272Z,65.82
2022-10-19T21:59:18.072Z,65.67
2022-10-19T22:01:44.903Z,65.95
2022-10-19T22:04:17.009Z,66.02
2022-10-19T22:06:44.149Z,66.09
2022-10-19T22:09:14.690Z,66.18
2022-10-19T22:11:41.553Z,66.06
2022-10-19T22:14:09.876Z,66.06
2022-10-19T22:16:37.089Z,65.92
2022-10-19T22:19:05.626Z,66.00
2022-10-19T22:21:33.666Z,66.18
2022-10-19T22:24:13.110Z,66.29
2022-10-19T22:26:43.692Z,66.36
2022-10-19T22:29:10.632Z,66.43
2022-10-19T22:31:38.105Z,66.41
2022-10-19T22:34:08.879Z,66.34
2022-10-19T22:36:36.167Z,65.95
2022-10-19T22:39:03.571Z,66.38
2022-10-19T22:42:23.301Z,66.25
2022-10-19T22:44:50.098Z,66.50
2022-10-19T22:47:16.864Z,66.33
2022-10-19T22:49:43.618Z,66.43
2022-10-19T22:52:10.539Z,66.59
2022-10-19T22:54:37.489Z,66.53
2022-10-19T22:57:04.492Z,66.40
2022-10-19T22:59:31.428Z,66.60
2022-10-19T23:01:58.294Z,66.52
2022-10-19T23:04:25.226Z,66.51
2022-10-19T23:06:52.024Z,66.58
2022-10-19T23:09:18.934Z,66.54
2022-10-19T23:11:45.716Z,66.73
2022-10-19T23:14:12.621Z,67.04
2022-10-19T23:16:39.540Z,67.11
2022-10-19T23:19:06.498Z,67.17
2022-10-19T23:21:33.388Z,67.05
2022-10-19T23:24:00.803Z,66.92
2022-10-19T23:26:27.678Z,66.95
2022-10-19T23:28:54.477Z,67.10
2022-10-19T23:31:25.094Z,67.20
2022-10-19T23:33:53.428Z,67.38
2022-10-19T23:36:23.928Z,67.28
2022-10-19T23:38:51.908Z,67.49
2022-10-19T23:41:20.027Z,67.48
2022-10-19T23:43:47.089Z,67.36
2022-10-19T23:46:14.512Z,67.43
2022-10-19T23:48:42.207Z,67.54
2022-10-19T23:51:11.684Z,67.65
2022-10-19T23:53:41.511Z,67.51
2022-10-19T23:56:13.785Z,67.63
2022-10-19T23:58:40.658Z,67.59
